Felixstowe, United Kingdom
Current Conditions -  °F | °C
As of 8:50 AM on Friday 31 Oct 2014 (Local Time) from EGUW Reporting Station
Haze Haze  
Wind Chill: 57°   Ceiling: 25000
Heat Index: 57°   Visibility: 5mi
Dew Point: 55°   Wind: 8mph
Humidity: 94%   Direction: 170°S
Pressure: 30.06"   Gusts: NA
Location:  51.96°N, 1.35°E
Report Text: EGUW 310850Z 17007KT 8000 BR FEW080 BKN250 14/13 Q1018 BLU BECMG 9999 NSW BLU
Loading
Personal Weather Stations






























Interactive Weather Map
Tropical Storm Tracking
New forecast layout! Learn more

10-Day Weather Forecast

Advertisements
Track Severe Weather on mobile